首页
METAR-TAF:

METAR-TAF

机场 :

東京國際機場

东京国际机场, 日本

纬度: 35-33N, 经度: 139-47E, 海拔: 5米

当前天气观测

该预报发布于34分钟前的04:30 UTC
风速14节,风向北转东北
温度 14°C
湿度 31%
气压 1014 hPa
能见度10公里或以上
少量云层高于3000英尺
散云层高于9000英尺

METAR: RJTT 230430Z 02014KT 9999 FEW030 SCT090 14/M03 Q1014 NOSIG RMK 1CU030 3AC090 A2996

时间: 14:04 (05:04 UTC)

预报

该预报发布于1小时和9分钟前的03:55 UTC
预报有效从23日的 03点(UTC)到 24日的 06点(UTC)
风速8节,风向
能见度10公里或以上
少量云层高于3000英尺
成为
从 23日的 05点(UTC)到 23日的 07点(UTC)
风速10节,风向北转西北
成为
从 24日的 00点(UTC)到 24日的 03点(UTC)
风速10节,风向

TAF: RJTT 230355Z 2303/2406 09008KT 9999 FEW030 BECMG 2305/2307 34010KT BECMG 2400/2403 18010KT

超过4000个机场的气象观测和天气预报(METAR&TAF报告)。

可查询的气象台以黄色和红色小点在地图上表示。

将鼠标移到小点上方,可查看气象台名称。

然后点击查看天气观测和预报。

如需切换地图:点击带黑十字的绿色按钮放大地图;点击带横线的绿色按钮缩小地图;或者点击绿色箭头查看邻近地区的地图。


METAR-TAF: